Time;durP1;ratioP1;P1;durP2;ratioP2;P2;SDS_P1;SDS_P2;PMS_P1;PMS_P2;Temp;Humidity;BMP_temperature;BMP_pressure;BME280_temperature;BME280_humidity;BME280_pressure;Samples;Min_cycle;Max_cycle;Signal;HPM_P1;HPM_P2
2022/08/03 00:03:14;;;;;;;;;;;;;;;20.11;63.89355;101539.8;;;;-76
2022/08/03 00:05:56;;;;;;;7.5;1.6;;;;;;;;;;;;;-75
2022/08/03 00:08:14;;;;;;;;;;;;;;;20.07;63.80859;101532.3;;;;-75
2022/08/03 00:13:14;;;;;;;;;;;;;;;20.03;64.08691;101532.3;;;;-73
2022/08/03 00:18:14;;;;;;;;;;;;;;;20.02;64.43652;101529.1;;;;-75
2022/08/03 00:23:14;;;;;;;;;;;;;;;20;64.25293;101530.6;;;;-73
2022/08/03 00:28:14;;;;;;;;;;;;;;;19.97;64.3623;101526.2;;;;-74
2022/08/03 00:33:14;;;;;;;;;;;;;;;19.93;64.13965;101526.8;;;;-75
2022/08/03 00:35:58;;;;;;;5.4;1.4;;;;;;;;;;;;;-74
2022/08/03 00:38:14;;;;;;;;;;;;;;;19.92;63.71777;101520.4;;;;-74
2022/08/03 00:43:14;;;;;;;;;;;;;;;19.89;63.73535;101515.4;;;;-74
2022/08/03 00:48:15;;;;;;;;;;;;;;;19.86;64.66406;101511.3;;;;-74
2022/08/03 00:53:14;;;;;;;;;;;;;;;19.84;64.53711;101504.1;;;;-73
2022/08/03 00:58:14;;;;;;;;;;;;;;;19.82;64.60059;101503.3;;;;-75
2022/08/03 01:03:15;;;;;;;;;;;;;;;19.8;64.73438;101498.8;;;;-74
2022/08/03 01:06:04;;;;;;;6.8;1.4;;;;;;;;;;;;;-74
2022/08/03 01:08:19;;;;;;;;;;;;;;;19.78;64.83301;101493.1;;;;-74
2022/08/03 01:13:20;;;;;;;;;;;;;;;19.74;65.40723;101484.8;;;;-73
2022/08/03 01:18:17;;;;;;;;;;;;;;;19.72;64.63281;101480.2;;;;-75
2022/08/03 01:23:25;;;;;;;;;;;;;;;19.68;64.35449;101478.8;;;;-73
2022/08/03 01:28:23;;;;;;;;;;;;;;;19.63;64.33594;101476.5;;;;-73
2022/08/03 01:33:18;;;;;;;;;;;;;;;19.61;64.54785;101476.9;;;;-75
2022/08/03 01:36:06;;;;;;;8.5;1.5;;;;;;;;;;;;;-75
2022/08/03 01:38:15;;;;;;;;;;;;;;;19.58;64.18066;101474.4;;;;-74
2022/08/03 01:43:16;;;;;;;;;;;;;;;19.55;63.99414;101475.4;;;;-75
2022/08/03 01:48:15;;;;;;;;;;;;;;;19.5;64.18066;101474.1;;;;-73
2022/08/03 01:53:17;;;;;;;;;;;;;;;19.49;64.04297;101475.9;;;;-74
2022/08/03 01:58:16;;;;;;;;;;;;;;;19.46;64.02637;101469.8;;;;-74
2022/08/03 02:03:16;;;;;;;;;;;;;;;19.43;64.18164;101468.8;;;;-74
2022/08/03 02:06:07;;;;;;;5.3;1.3;;;;;;;;;;;;;-73
2022/08/03 02:08:15;;;;;;;;;;;;;;;19.39;63.99609;101468.9;;;;-74
2022/08/03 02:13:14;;;;;;;;;;;;;;;19.36;64.3291;101461.2;;;;-75
2022/08/03 02:18:14;;;;;;;;;;;;;;;19.31;64.13184;101459.6;;;;-74
2022/08/03 02:23:14;;;;;;;;;;;;;;;19.28;64.18164;101461.3;;;;-75
2022/08/03 02:28:14;;;;;;;;;;;;;;;19.26;64.34961;101456.7;;;;-75
2022/08/03 02:33:16;;;;;;;;;;;;;;;19.23;64.2334;101453.4;;;;-74
2022/08/03 02:36:09;;;;;;;7.6;1.5;;;;;;;;;;;;;-75
2022/08/03 02:38:15;;;;;;;;;;;;;;;19.2;64.7832;101450.5;;;;-73
2022/08/03 02:43:18;;;;;;;;;;;;;;;19.18;64.50879;101451.5;;;;-74
2022/08/03 02:48:14;;;;;;;;;;;;;;;19.16;64.85645;101451.6;;;;-73
2022/08/03 02:53:15;;;;;;;;;;;;;;;19.13;64.94336;101450.1;;;;-74
2022/08/03 02:58:14;;;;;;;;;;;;;;;19.1;64.84863;101453.4;;;;-75
2022/08/03 03:03:14;;;;;;;;;;;;;;;19.09;65.36816;101451.5;;;;-74
2022/08/03 03:06:11;;;;;;;8.9;1.5;;;;;;;;;;;;;-74
2022/08/03 03:08:15;;;;;;;;;;;;;;;19.05;64.81934;101437;;;;-74
2022/08/03 03:13:14;;;;;;;;;;;;;;;19.01;65.20898;101438.4;;;;-73
2022/08/03 03:18:14;;;;;;;;;;;;;;;19.02;65.69727;101440.5;;;;-74
2022/08/03 03:23:14;;;;;;;;;;;;;;;18.99;65.07031;101440.8;;;;-74
2022/08/03 03:28:14;;;;;;;;;;;;;;;18.96;65.50781;101440.3;;;;-73
2022/08/03 03:33:15;;;;;;;;;;;;;;;18.95;65.94824;101444;;;;-73
2022/08/03 03:36:15;;;;;;;9;1.7;;;;;;;;;;;;;-74
2022/08/03 03:38:14;;;;;;;;;;;;;;;18.93;65.9668;101443.6;;;;-74
2022/08/03 03:43:14;;;;;;;;;;;;;;;18.92;67.57422;101447.7;;;;-74
2022/08/03 03:48:15;;;;;;;;;;;;;;;18.89;66.7998;101450.8;;;;-75
2022/08/03 03:53:16;;;;;;;;;;;;;;;18.9;67.35645;101450.9;;;;-74
2022/08/03 03:58:14;;;;;;;;;;;;;;;18.89;67.10449;101451.8;;;;-73
2022/08/03 04:03:14;;;;;;;;;;;;;;;18.87;66.53711;101451.3;;;;-74
2022/08/03 04:13:15;;;;;;;;;;;;;;;18.83;66.91602;101452.6;;;;-74
2022/08/03 04:18:16;;;;;;;;;;;;;;;18.8;66.51465;101451.9;;;;-74
2022/08/03 04:23:14;;;;;;;;;;;;;;;18.81;66.61816;101456.3;;;;-74
2022/08/03 04:28:14;;;;;;;;;;;;;;;18.81;66.91211;101460.2;;;;-73
2022/08/03 04:33:14;;;;;;;;;;;;;;;18.81;66.86523;101463.6;;;;-74
2022/08/03 04:36:19;;;;;;;7.2;1.8;;;;;;;;;;;;;-74
2022/08/03 04:38:16;;;;;;;;;;;;;;;18.83;66.48438;101468.7;;;;-74
2022/08/03 04:43:15;;;;;;;;;;;;;;;18.84;66.75879;101468.8;;;;-73
2022/08/03 04:48:14;;;;;;;;;;;;;;;18.88;67.14941;101474.1;;;;-75
2022/08/03 04:53:14;;;;;;;;;;;;;;;18.93;67.79004;101479.2;;;;-73
2022/08/03 04:58:14;;;;;;;;;;;;;;;18.99;67.46094;101473.3;;;;-74
2022/08/03 05:03:14;;;;;;;;;;;;;;;19.05;67.59473;101479.4;;;;-74
2022/08/03 05:06:20;;;;;;;7.2;1.8;;;;;;;;;;;;;-75
2022/08/03 05:08:13;;;;;;;;;;;;;;;19.11;67.63672;101481;;;;-74
2022/08/03 05:13:14;;;;;;;;;;;;;;;19.19;68.59961;101483.7;;;;-75
2022/08/03 05:18:14;;;;;;;;;;;;;;;19.25;67.48926;101479.8;;;;-73
2022/08/03 05:23:14;;;;;;;;;;;;;;;19.33;68.29297;101477.4;;;;-74
2022/08/03 05:28:14;;;;;;;;;;;;;;;19.41;68.69141;101479.5;;;;-75
2022/08/03 05:33:13;;;;;;;;;;;;;;;19.53;69.77441;101477.8;;;;-75
2022/08/03 05:36:22;;;;;;;10.8;3;;;;;;;;;;;;;-74
2022/08/03 05:38:13;;;;;;;;;;;;;;;19.62;71.8291;101479.7;;;;-74
2022/08/03 05:43:15;;;;;;;;;;;;;;;19.71;71.16309;101478.7;;;;-75
2022/08/03 05:48:14;;;;;;;;;;;;;;;19.8;70.73535;101481.7;;;;-73
2022/08/03 05:53:14;;;;;;;;;;;;;;;19.94;70.25977;101476.7;;;;-74
2022/08/03 05:58:13;;;;;;;;;;;;;;;20.13;69.5957;101478.4;;;;-75
2022/08/03 06:03:14;;;;;;;;;;;;;;;20.34;68.93652;101484.4;;;;-73
2022/08/03 06:06:24;;;;;;;14.3;3.1;;;;;;;;;;;;;-73
2022/08/03 06:08:13;;;;;;;;;;;;;;;20.59;69.10059;101480.5;;;;-77
2022/08/03 06:13:14;;;;;;;;;;;;;;;20.74;68.97656;101483.2;;;;-73
2022/08/03 06:18:13;;;;;;;;;;;;;;;20.87;68.37109;101484.7;;;;-75
2022/08/03 06:23:14;;;;;;;;;;;;;;;21.01;67.80176;101480.9;;;;-75
2022/08/03 06:28:14;;;;;;;;;;;;;;;21.19;67.40723;101484.3;;;;-74
2022/08/03 06:33:15;;;;;;;;;;;;;;;21.32;67.47168;101482.8;;;;-74
2022/08/03 06:36:30;;;;;;;12.2;3;;;;;;;;;;;;;-75
2022/08/03 06:38:13;;;;;;;;;;;;;;;21.46;67.79004;101487.5;;;;-75
2022/08/03 06:43:14;;;;;;;;;;;;;;;21.56;68.03125;101489.1;;;;-75
2022/08/03 06:48:14;;;;;;;;;;;;;;;21.66;67.60254;101494.4;;;;-73
2022/08/03 06:53:13;;;;;;;;;;;;;;;21.83;67.59473;101501.2;;;;-74
2022/08/03 06:58:14;;;;;;;;;;;;;;;22.02;67.46387;101503.7;;;;-74
2022/08/03 07:03:13;;;;;;;;;;;;;;;22.18;66.74707;101501.7;;;;-74
2022/08/03 07:06:30;;;;;;;12.2;3.9;;;;;;;;;;;;;-76
2022/08/03 07:08:13;;;;;;;;;;;;;;;22.35;67.18164;101501.8;;;;-74
2022/08/03 07:13:14;;;;;;;;;;;;;;;22.77;66.83301;101501.8;;;;-73
2022/08/03 07:18:13;;;;;;;;;;;;;;;23.27;65.45508;101508.1;;;;-74
2022/08/03 07:23:14;;;;;;;;;;;;;;;23.58;63.87598;101510.9;;;;-74
2022/08/03 07:28:14;;;;;;;;;;;;;;;23.75;63.40625;101518.4;;;;-75
2022/08/03 07:33:14;;;;;;;;;;;;;;;23.78;63.49121;101525;;;;-75
2022/08/03 07:36:32;;;;;;;17.3;3.7;;;;;;;;;;;;;-74
2022/08/03 07:38:13;;;;;;;;;;;;;;;23.85;63.76465;101532.8;;;;-74
2022/08/03 07:43:14;;;;;;;;;;;;;;;24.12;62.98828;101533.9;;;;-74
2022/08/03 07:48:14;;;;;;;;;;;;;;;24.34;62.17969;101534.3;;;;-74
2022/08/03 07:53:14;;;;;;;;;;;;;;;24.5;61.98438;101532;;;;-73
2022/08/03 07:58:16;;;;;;;;;;;;;;;24.77;61.79395;101532.9;;;;-75
2022/08/03 08:03:14;;;;;;;;;;;;;;;25.21;60.58691;101529.4;;;;-72
2022/08/03 08:06:35;;;;;;;11.4;2.9;;;;;;;;;;;;;-73
2022/08/03 08:08:15;;;;;;;;;;;;;;;25.63;59.26074;101534.5;;;;-74
2022/08/03 08:13:14;;;;;;;;;;;;;;;25.95;58.3584;101539.3;;;;-74
2022/08/03 08:18:14;;;;;;;;;;;;;;;26.18;57.67188;101538.7;;;;-76
2022/08/03 08:23:14;;;;;;;;;;;;;;;26.29;57.13281;101537;;;;-75
2022/08/03 08:28:13;;;;;;;;;;;;;;;26.39;57.25977;101536.1;;;;-74
2022/08/03 08:33:14;;;;;;;;;;;;;;;26.53;56.62988;101536.4;;;;-75
2022/08/03 08:36:39;;;;;;;16.8;3;;;;;;;;;;;;;-76
2022/08/03 08:38:13;;;;;;;;;;;;;;;26.65;56.91113;101535.2;;;;-73
2022/08/03 08:43:14;;;;;;;;;;;;;;;26.94;55.9873;101539.5;;;;-76
2022/08/03 08:48:18;;;;;;;;;;;;;;;27.17;55.40332;101539.5;;;;-74
2022/08/03 08:53:15;;;;;;;;;;;;;;;27.3;54.81641;101540.1;;;;-74
2022/08/03 08:58:14;;;;;;;;;;;;;;;27.29;54.59668;101543.9;;;;-73
2022/08/03 09:03:15;;;;;;;;;;;;;;;27.29;54.52637;101543.1;;;;-72
2022/08/03 09:06:43;;;;;;;19.1;3.4;;;;;;;;;;;;;-74
2022/08/03 09:08:19;;;;;;;;;;;;;;;27.39;54.53809;101545.8;;;;-75
2022/08/03 09:13:17;;;;;;;;;;;;;;;27.6;54.09961;101549.3;;;;-73
2022/08/03 09:18:14;;;;;;;;;;;;;;;27.82;53.58105;101547.6;;;;-75
2022/08/03 09:23:13;;;;;;;;;;;;;;;27.97;53.40234;101550;;;;-74
2022/08/03 09:28:15;;;;;;;;;;;;;;;28.13;52.93262;101557;;;;-74
2022/08/03 09:33:15;;;;;;;;;;;;;;;28.43;52.71191;101555.7;;;;-75
2022/08/03 09:36:48;;;;;;;11.8;3.1;;;;;;;;;;;;;-77
2022/08/03 09:38:18;;;;;;;;;;;;;;;28.81;51.93262;101558;;;;-76
2022/08/03 09:43:14;;;;;;;;;;;;;;;29.18;51.4502;101555.2;;;;-77
2022/08/03 09:48:28;;;;;;;;;;;;;;;29.58;50.9248;101550.1;;;;-76
2022/08/03 09:53:14;;;;;;;;;;;;;;;29.93;50.34375;101551.9;;;;-77
2022/08/03 09:58:14;;;;;;;;;;;;;;;30.28;49.96387;101560.8;;;;-76
2022/08/03 10:03:13;;;;;;;;;;;;;;;30.62;48.9248;101554.5;;;;-77
2022/08/03 10:07:01;;;;;;;11.7;2.8;;;;;;;;;;;;;-77
2022/08/03 10:08:18;;;;;;;;;;;;;;;30.98;48.82422;101555.1;;;;-76
2022/08/03 10:13:14;;;;;;;;;;;;;;;31.23;47.5625;101556.2;;;;-77
2022/08/03 10:18:14;;;;;;;;;;;;;;;31.46;47.78613;101556;;;;-76
2022/08/03 10:23:14;;;;;;;;;;;;;;;31.67;47.38672;101552.9;;;;-75
2022/08/03 10:28:16;;;;;;;;;;;;;;;31.9;47.28223;101552.8;;;;-75
2022/08/03 10:33:17;;;;;;;;;;;;;;;32.11;46.92773;101554.9;;;;-76
2022/08/03 10:36:59;;;;;;;10.8;2.4;;;;;;;;;;;;;-76
2022/08/03 10:38:19;;;;;;;;;;;;;;;32.32;46.67871;101552.9;;;;-75
2022/08/03 10:43:15;;;;;;;;;;;;;;;32.53;46.77148;101558.6;;;;-75
2022/08/03 10:48:14;;;;;;;;;;;;;;;32.76;46.34766;101555.4;;;;-75
2022/08/03 10:53:13;;;;;;;;;;;;;;;32.95;45.55664;101546;;;;-76
2022/08/03 10:58:14;;;;;;;;;;;;;;;33.2;45.79395;101549.7;;;;-75
2022/08/03 11:03:14;;;;;;;;;;;;;;;33.4;45.57715;101543.7;;;;-75
2022/08/03 11:07:12;;;;;;;12.8;2.4;;;;;;;;;;;;;-75
2022/08/03 11:08:37;;;;;;;;;;;;;;;33.6;45.47949;101541.5;;;;-75
2022/08/03 11:13:16;;;;;;;;;;;;;;;33.71;44.24316;101542.3;;;;-74
2022/08/03 11:18:15;;;;;;;;;;;;;;;33.87;44.62305;101537.2;;;;-75
2022/08/03 11:23:14;;;;;;;;;;;;;;;34.01;43.98828;101536.5;;;;-75
2022/08/03 11:28:32;;;;;;;;;;;;;;;34.15;44.44922;101534.8;;;;-75
2022/08/03 11:33:23;;;;;;;;;;;;;;;34.35;44.31543;101537.6;;;;-75
2022/08/03 11:37:18;;;;;;;9.4;2;;;;;;;;;;;;;-76
2022/08/03 11:38:23;;;;;;;;;;;;;;;34.5;43.71582;101539.3;;;;-75
2022/08/03 11:43:23;;;;;;;;;;;;;;;34.59;43.87891;101537.8;;;;-74
2022/08/03 11:48:20;;;;;;;;;;;;;;;34.7;43.60547;101536.3;;;;-76
2022/08/03 11:53:16;;;;;;;;;;;;;;;34.79;43.62695;101537.4;;;;-75
2022/08/03 11:58:17;;;;;;;;;;;;;;;34.89;43.12695;101537.2;;;;-76
2022/08/03 12:03:14;;;;;;;;;;;;;;;34.9;42.13574;101533.2;;;;-75
2022/08/03 12:07:12;;;;;;;12.1;2.1;;;;;;;;;;;;;-75
2022/08/03 12:08:15;;;;;;;;;;;;;;;34.91;42.49219;101534.1;;;;-77
2022/08/03 12:10:58;;;;;;;;;;;;;;;35.23;42.1416;101531.4;;;;-74
2022/08/03 12:13:53;;;;;;;;;;;;;;;35.08;42.38867;101534.6;;;;-79
2022/08/03 12:18:57;;;;;;;;;;;;;;;35.12;41.62305;101529.6;;;;-78
2022/08/03 12:23:52;;;;;;;;;;;;;;;35.14;41.15234;101532.5;;;;-77
2022/08/03 12:26:08;;;;;;;;;;;;;;;35.41;41.02148;101528.2;;;;-76
2022/08/03 12:28:53;;;;;;;;;;;;;;;35.18;41.22656;101523.1;;;;-76
2022/08/03 12:34:02;;;;;;;;;;;;;;;35.24;41.1377;101530.6;;;;-75
2022/08/03 12:37:21;;;;;;;8.6;1.7;;;;;;;;;;;;;-76
2022/08/03 12:38:57;;;;;;;;;;;;;;;35.25;40.51074;101522.8;;;;-76
2022/08/03 12:41:16;;;;;;;;;;;;;;;35.48;40.13965;101522.3;;;;-74
2022/08/03 12:44:38;;;;;;;;;;;;;;;35.21;40.23535;101521.5;;;;-76
2022/08/03 12:49:44;;;;;;;;;;;;;;;35.24;40.13184;101520.3;;;;-75
2022/08/03 12:54:34;;;;;;;;;;;;;;;35.21;39.72656;101518.5;;;;-75
2022/08/03 12:59:35;;;;;;;;;;;;;;;35.31;39.79395;101519.1;;;;-75
2022/08/03 13:04:36;;;;;;;;;;;;;;;35.42;40.26563;101525.4;;;;-74
2022/08/03 13:07:24;;;;;;;7.7;1.7;;;;;;;;;;;;;-74
2022/08/03 13:09:44;;;;;;;;;;;;;;;35.64;40.13086;101528.1;;;;-75
2022/08/03 13:14:34;;;;;;;;;;;;;;;35.85;39.91211;101526.2;;;;-74
2022/08/03 13:19:35;;;;;;;;;;;;;;;36;39.8418;101524;;;;-74
2022/08/03 13:24:35;;;;;;;;;;;;;;;36.07;39.96582;101528.5;;;;-76
2022/08/03 13:29:36;;;;;;;;;;;;;;;36.09;40.28906;101522.2;;;;-75
2022/08/03 13:34:34;;;;;;;;;;;;;;;36.18;40.15332;101519.8;;;;-76
2022/08/03 13:37:30;;;;;;;9.2;2;;;;;;;;;;;;;-76
2022/08/03 13:39:34;;;;;;;;;;;;;;;36.27;40.18555;101516;;;;-75
2022/08/03 13:44:35;;;;;;;;;;;;;;;36.32;39.83398;101515.6;;;;-76
2022/08/03 13:49:35;;;;;;;;;;;;;;;36.26;39.6875;101517.5;;;;-75
2022/08/03 13:54:34;;;;;;;;;;;;;;;36.21;39.7168;101518.5;;;;-74
2022/08/03 13:59:34;;;;;;;;;;;;;;;36.16;39.48828;101516.7;;;;-75
2022/08/03 14:04:34;;;;;;;;;;;;;;;36.11;39.15234;101516.8;;;;-73
2022/08/03 14:07:36;;;;;;;8;1.6;;;;;;;;;;;;;-75
2022/08/03 14:09:34;;;;;;;;;;;;;;;36.13;39.1416;101525;;;;-75
2022/08/03 14:14:35;;;;;;;;;;;;;;;36.21;38.66113;101534.5;;;;-74
2022/08/03 14:19:38;;;;;;;;;;;;;;;36.22;38.58008;101540.9;;;;-76
2022/08/03 14:24:34;;;;;;;;;;;;;;;36.21;38.44824;101530.6;;;;-74
2022/08/03 14:29:34;;;;;;;;;;;;;;;36.22;38.60352;101527.3;;;;-74
2022/08/03 14:34:34;;;;;;;;;;;;;;;36.11;38.36914;101528.6;;;;-74
2022/08/03 14:37:42;;;;;;;8.4;1.6;;;;;;;;;;;;;-75
2022/08/03 14:39:34;;;;;;;;;;;;;;;36.07;38.10449;101525;;;;-74
2022/08/03 14:44:34;;;;;;;;;;;;;;;36.03;37.72168;101520.3;;;;-75
2022/08/03 14:49:34;;;;;;;;;;;;;;;35.98;38.00195;101511.3;;;;-74
2022/08/03 14:54:34;;;;;;;;;;;;;;;35.94;37.79785;101512.1;;;;-73
2022/08/03 14:59:35;;;;;;;;;;;;;;;35.88;37.50781;101507.7;;;;-76
2022/08/03 15:04:34;;;;;;;;;;;;;;;35.81;37.47852;101509;;;;-74
2022/08/03 15:07:48;;;;;;;6.6;1.6;;;;;;;;;;;;;-75
2022/08/03 15:09:37;;;;;;;;;;;;;;;35.66;37.16895;101507.7;;;;-74
2022/08/03 15:14:35;;;;;;;;;;;;;;;35.52;37.08691;101505.7;;;;-74
2022/08/03 15:19:35;;;;;;;;;;;;;;;35.43;36.93848;101502.7;;;;-74
2022/08/03 15:24:35;;;;;;;;;;;;;;;35.36;37.02637;101497;;;;-75
2022/08/03 15:29:34;;;;;;;;;;;;;;;35.28;36.34473;101499.7;;;;-75
2022/08/03 15:34:34;;;;;;;;;;;;;;;35.15;36.42871;101490.8;;;;-75
2022/08/03 15:37:57;;;;;;;8.8;1.5;;;;;;;;;;;;;-74
2022/08/03 15:39:35;;;;;;;;;;;;;;;35.06;36.33887;101493.7;;;;-74
2022/08/03 15:44:34;;;;;;;;;;;;;;;35.01;36.64355;101497.3;;;;-75
2022/08/03 15:49:34;;;;;;;;;;;;;;;34.97;36.50977;101487.5;;;;-74
2022/08/03 15:54:34;;;;;;;;;;;;;;;34.99;36.46387;101487.6;;;;-74
2022/08/03 15:59:37;;;;;;;;;;;;;;;34.97;36.27246;101490.5;;;;-74
2022/08/03 16:04:34;;;;;;;;;;;;;;;34.97;36.37988;101495.3;;;;-74
2022/08/03 16:07:59;;;;;;;7.5;1.5;;;;;;;;;;;;;-76
2022/08/03 16:09:35;;;;;;;;;;;;;;;34.96;36.48535;101501.6;;;;-74
2022/08/03 16:14:34;;;;;;;;;;;;;;;34.88;36.36133;101501.8;;;;-73
2022/08/03 16:19:35;;;;;;;;;;;;;;;34.78;36.69531;101496.8;;;;-75
2022/08/03 16:24:34;;;;;;;;;;;;;;;34.7;36.81934;101495.3;;;;-74
2022/08/03 16:29:34;;;;;;;;;;;;;;;34.64;37.06348;101497.2;;;;-74
2022/08/03 16:34:34;;;;;;;;;;;;;;;34.56;37.29297;101488.5;;;;-74
2022/08/03 16:38:05;;;;;;;6.1;1.5;;;;;;;;;;;;;-73
2022/08/03 16:39:36;;;;;;;;;;;;;;;34.48;37.21582;101492.4;;;;-74
2022/08/03 16:44:35;;;;;;;;;;;;;;;34.36;37.18262;101489.2;;;;-75
2022/08/03 16:49:34;;;;;;;;;;;;;;;34.23;37.63281;101491;;;;-74
2022/08/03 16:54:34;;;;;;;;;;;;;;;34.11;37.78906;101486.4;;;;-75
2022/08/03 16:59:34;;;;;;;;;;;;;;;33.99;37.8252;101485;;;;-73
2022/08/03 17:04:36;;;;;;;;;;;;;;;33.85;38.21582;101479.2;;;;-75
2022/08/03 17:08:11;;;;;;;6.9;1.6;;;;;;;;;;;;;-74
2022/08/03 17:09:35;;;;;;;;;;;;;;;33.69;38.46191;101476.5;;;;-74
2022/08/03 17:14:34;;;;;;;;;;;;;;;33.56;38.68652;101479.8;;;;-73
2022/08/03 17:19:35;;;;;;;;;;;;;;;33.39;38.96875;101476.4;;;;-73
2022/08/03 17:24:37;;;;;;;;;;;;;;;33.22;39.03613;101476.1;;;;-74
2022/08/03 17:29:35;;;;;;;;;;;;;;;33.04;39.0918;101469.9;;;;-73
2022/08/03 17:34:36;;;;;;;;;;;;;;;32.82;39.44922;101466;;;;-77
2022/08/03 17:38:16;;;;;;;4.8;1.2;;;;;;;;;;;;;-77
2022/08/03 17:39:35;;;;;;;;;;;;;;;32.62;39.77246;101466.5;;;;-77
2022/08/03 17:44:35;;;;;;;;;;;;;;;32.41;39.67188;101460.7;;;;-77
2022/08/03 17:49:35;;;;;;;;;;;;;;;32.2;39.9834;101461.3;;;;-77
2022/08/03 17:54:41;;;;;;;;;;;;;;;32;40.24805;101463.3;;;;-77
2022/08/03 17:59:40;;;;;;;;;;;;;;;31.8;40.57129;101465.6;;;;-77
2022/08/03 18:04:36;;;;;;;;;;;;;;;31.58;40.82227;101463.5;;;;-76
2022/08/03 18:08:26;;;;;;;5.1;1.2;;;;;;;;;;;;;-77
2022/08/03 18:09:35;;;;;;;;;;;;;;;31.36;40.84863;101458.3;;;;-76
2022/08/03 18:14:40;;;;;;;;;;;;;;;30.86;40.21777;101452.2;;;;-79
2022/08/03 18:19:36;;;;;;;;;;;;;;;30.02;40.82227;101449.2;;;;-80
2022/08/03 18:24:35;;;;;;;;;;;;;;;29.56;41.45996;101451.2;;;;-79
2022/08/03 18:29:35;;;;;;;;;;;;;;;29.19;41.91602;101449.5;;;;-79
2022/08/03 18:34:35;;;;;;;;;;;;;;;28.83;42.59375;101447.5;;;;-79
2022/08/03 18:38:26;;;;;;;7.1;1.2;;;;;;;;;;;;;-78
2022/08/03 18:39:35;;;;;;;;;;;;;;;28.5;42.91211;101444.9;;;;-77
2022/08/03 18:44:36;;;;;;;;;;;;;;;28.24;43.2959;101445.4;;;;-78
2022/08/03 18:49:42;;;;;;;;;;;;;;;27.93;44.0918;101439.2;;;;-79
2022/08/03 18:54:45;;;;;;;;;;;;;;;27.71;44.62793;101444.4;;;;-77
2022/08/03 18:59:41;;;;;;;;;;;;;;;27.51;45.06055;101444.5;;;;-73
2022/08/03 19:04:37;;;;;;;;;;;;;;;27.58;43.47656;101438.5;;;;-73
2022/08/03 19:08:36;;;;;;;3.9;1.4;;;;;;;;;;;;;-74
2022/08/03 19:09:40;;;;;;;;;;;;;;;27.58;43.03418;101443.3;;;;-74
2022/08/03 19:14:41;;;;;;;;;;;;;;;27.46;42.83594;101447.8;;;;-74
2022/08/03 19:19:35;;;;;;;;;;;;;;;27.29;42.98438;101447.6;;;;-73
2022/08/03 19:24:35;;;;;;;;;;;;;;;27.11;43.22168;101452.6;;;;-73
2022/08/03 19:29:36;;;;;;;;;;;;;;;26.91;43.38867;101457.3;;;;-74
2022/08/03 19:34:35;;;;;;;;;;;;;;;26.7;43.60059;101457;;;;-74
2022/08/03 19:38:34;;;;;;;3.4;1.1;;;;;;;;;;;;;-74
2022/08/03 19:39:34;;;;;;;;;;;;;;;26.49;43.91602;101456.4;;;;-75
2022/08/03 19:44:37;;;;;;;;;;;;;;;26.28;44.10449;101463.3;;;;-75
2022/08/03 19:49:38;;;;;;;;;;;;;;;26.1;44.42285;101462.3;;;;-74
2022/08/03 19:54:38;;;;;;;;;;;;;;;25.91;44.68164;101457.8;;;;-73
2022/08/03 19:59:36;;;;;;;;;;;;;;;25.75;44.9209;101458.4;;;;-75
2022/08/03 20:04:34;;;;;;;;;;;;;;;25.57;45.20508;101455.6;;;;-74
2022/08/03 20:08:38;;;;;;;3.9;1.2;;;;;;;;;;;;;-74
2022/08/03 20:09:35;;;;;;;;;;;;;;;25.4;45.68457;101458.3;;;;-74
2022/08/03 20:14:35;;;;;;;;;;;;;;;25.23;45.78223;101450.4;;;;-74
2022/08/03 20:19:35;;;;;;;;;;;;;;;25.09;46.0791;101449.6;;;;-74
2022/08/03 20:24:36;;;;;;;;;;;;;;;24.92;46.44434;101445.5;;;;-74
2022/08/03 20:29:36;;;;;;;;;;;;;;;24.78;46.5332;101440.6;;;;-73
2022/08/03 20:34:34;;;;;;;;;;;;;;;24.62;46.77051;101443.4;;;;-73
2022/08/03 20:38:42;;;;;;;2.6;1.2;;;;;;;;;;;;;-73
2022/08/03 20:39:34;;;;;;;;;;;;;;;24.48;47.20703;101444.1;;;;-75
2022/08/03 20:44:34;;;;;;;;;;;;;;;24.36;47.53906;101442.4;;;;-74
2022/08/03 20:49:35;;;;;;;;;;;;;;;24.23;47.61816;101440.6;;;;-74
2022/08/03 20:54:34;;;;;;;;;;;;;;;24.14;47.89551;101437.9;;;;-74
2022/08/03 20:59:35;;;;;;;;;;;;;;;24;47.91504;101432.6;;;;-74
2022/08/03 21:04:34;;;;;;;;;;;;;;;23.9;48.16992;101429;;;;-74
2022/08/03 21:08:48;;;;;;;5.2;1.2;;;;;;;;;;;;;-74
2022/08/03 21:09:44;;;;;;;;;;;;;;;23.82;48.33398;101425.2;;;;-74
2022/08/03 21:14:40;;;;;;;;;;;;;;;23.72;48.70215;101420.6;;;;-73
2022/08/03 21:19:35;;;;;;;;;;;;;;;23.61;49.3584;101413.1;;;;-74
2022/08/03 21:24:36;;;;;;;;;;;;;;;23.52;49.11816;101413;;;;-74
2022/08/03 21:29:35;;;;;;;;;;;;;;;23.43;49.16602;101413;;;;-74
2022/08/03 21:34:35;;;;;;;;;;;;;;;23.33;49.29395;101408.5;;;;-73
2022/08/03 21:38:49;;;;;;;2.4;1.2;;;;;;;;;;;;;-73
2022/08/03 21:39:35;;;;;;;;;;;;;;;23.26;49.62988;101404.2;;;;-74
2022/08/03 21:44:34;;;;;;;;;;;;;;;23.18;49.63281;101403.8;;;;-73
2022/08/03 21:49:35;;;;;;;;;;;;;;;23.11;50.00488;101398.9;;;;-73
2022/08/03 21:54:37;;;;;;;;;;;;;;;23.04;49.83594;101393.5;;;;-75
2022/08/03 21:59:37;;;;;;;;;;;;;;;22.97;50.16113;101397.2;;;;-74
2022/08/03 22:04:35;;;;;;;;;;;;;;;22.91;50.02832;101404.3;;;;-74
2022/08/03 22:08:53;;;;;;;2.5;1.2;;;;;;;;;;;;;-74
2022/08/03 22:09:35;;;;;;;;;;;;;;;22.82;50.19043;101402.1;;;;-74
2022/08/03 22:14:35;;;;;;;;;;;;;;;22.72;50.09863;101399;;;;-75
2022/08/03 22:19:34;;;;;;;;;;;;;;;22.67;50.28809;101394.8;;;;-74
2022/08/03 22:24:34;;;;;;;;;;;;;;;22.59;50.57715;101385.6;;;;-73
2022/08/03 22:29:35;;;;;;;;;;;;;;;22.52;50.69531;101385.5;;;;-73
2022/08/03 22:34:35;;;;;;;;;;;;;;;22.48;50.65723;101383.6;;;;-74
2022/08/03 22:38:55;;;;;;;3.5;1.3;;;;;;;;;;;;;-73
2022/08/03 22:39:34;;;;;;;;;;;;;;;22.42;51.0957;101376;;;;-74
2022/08/03 22:44:34;;;;;;;;;;;;;;;22.38;52.2959;101379.3;;;;-74
2022/08/03 22:49:35;;;;;;;;;;;;;;;22.33;51.54395;101372.1;;;;-74
2022/08/03 22:54:34;;;;;;;;;;;;;;;22.28;51.71191;101375.8;;;;-74
2022/08/03 22:59:35;;;;;;;;;;;;;;;22.24;51.71777;101381.8;;;;-74
2022/08/03 23:04:35;;;;;;;;;;;;;;;22.19;52.48047;101381.1;;;;-74
2022/08/03 23:08:59;;;;;;;5.4;2.2;;;;;;;;;;;;;-75
2022/08/03 23:09:35;;;;;;;;;;;;;;;22.15;51.98242;101381.7;;;;-77
2022/08/03 23:14:39;;;;;;;;;;;;;;;22.11;52.08203;101383.6;;;;-73
2022/08/03 23:19:35;;;;;;;;;;;;;;;22.05;52.60059;101382.5;;;;-74
2022/08/03 23:24:36;;;;;;;;;;;;;;;22.01;52.11523;101379.1;;;;-74
2022/08/03 23:29:36;;;;;;;;;;;;;;;21.96;52.13184;101382.7;;;;-74
2022/08/03 23:39:04;;;;;;;12;5.2;;;;;;;;;;;;;-76
2022/08/03 23:39:35;;;;;;;;;;;;;;;21.88;52.79785;101386.6;;;;-73
2022/08/03 23:44:37;;;;;;;;;;;;;;;21.83;52.73633;101385.7;;;;-73
2022/08/03 23:49:35;;;;;;;;;;;;;;;21.79;52.78809;101388;;;;-74
2022/08/03 23:54:39;;;;;;;;;;;;;;;21.74;53.83496;101389.2;;;;-74
2022/08/03 23:59:41;;;;;;;;;;;;;;;21.69;53.80664;101385.6;;;;-74
